createdAt,value
2023-03-06T00:00:50.043Z,100721.59
2023-03-06T00:03:17.085Z,100714.91
2023-03-06T00:05:44.781Z,100720.22
2023-03-06T00:08:12.020Z,100710.13
2023-03-06T00:10:40.281Z,100705.97
2023-03-06T00:13:12.347Z,100701.81
2023-03-06T00:15:39.436Z,100702.00
2023-03-06T00:18:07.090Z,100705.72
2023-03-06T00:20:35.260Z,100689.03
2023-03-06T00:23:02.222Z,100697.06
2023-03-06T00:25:29.114Z,100697.25
2023-03-06T00:27:56.343Z,100691.16
2023-03-06T00:30:25.100Z,100688.63
2023-03-06T00:32:53.380Z,100688.44
2023-03-06T00:35:20.713Z,100682.69
2023-03-06T00:37:47.825Z,100676.09
2023-03-06T00:40:17.975Z,100680.44
2023-03-06T00:42:45.614Z,100680.75
2023-03-06T00:45:12.997Z,100672.44
2023-03-06T00:47:40.450Z,100685.75
2023-03-06T00:50:08.757Z,100672.56
2023-03-06T00:52:36.243Z,100668.91
2023-03-06T00:55:03.854Z,100665.75
2023-03-06T00:57:30.889Z,100665.91
2023-03-06T00:59:57.708Z,100667.50
2023-03-06T01:02:25.193Z,100660.59
2023-03-06T01:04:54.781Z,100654.22
2023-03-06T01:07:21.701Z,100660.31
2023-03-06T01:09:48.558Z,100655.66
2023-03-06T01:12:15.769Z,100648.78
2023-03-06T01:14:42.980Z,100648.78
2023-03-06T01:17:10.609Z,100637.69
2023-03-06T01:19:37.642Z,100646.03
2023-03-06T01:22:04.497Z,100653.88
2023-03-06T01:24:31.806Z,100641.88
2023-03-06T01:26:59.342Z,100646.03
2023-03-06T01:29:26.604Z,100647.66
2023-03-06T01:31:53.685Z,100643.78
2023-03-06T01:34:21.097Z,100647.34
2023-03-06T01:36:48.194Z,100640.44
2023-03-06T01:39:16.325Z,100637.06
2023-03-06T01:41:43.326Z,100620.88
2023-03-06T01:44:15.756Z,100628.72
2023-03-06T01:46:44.750Z,100623.75
2023-03-06T01:49:22.441Z,100631.25
2023-03-06T01:52:06.739Z,100634.31
2023-03-06T01:54:43.323Z,100625.28
2023-03-06T01:57:18.830Z,100626.03
2023-03-06T01:59:49.557Z,100623.16
2023-03-06T02:02:16.594Z,100624.75
2023-03-06T02:04:44.328Z,100627.63
2023-03-06T02:07:11.795Z,100634.00
2023-03-06T02:09:39.168Z,100622.13
2023-03-06T02:12:10.475Z,100629.03
2023-03-06T02:14:39.587Z,100630.56
2023-03-06T02:17:08.912Z,100626.69
2023-03-06T02:19:41.850Z,100614.50
2023-03-06T02:22:08.991Z,100623.63
2023-03-06T02:25:14.249Z,100623.56
2023-03-06T02:27:41.541Z,100619.66
2023-03-06T02:30:10.268Z,100612.25
2023-03-06T02:32:37.242Z,100609.50
2023-03-06T02:35:04.667Z,100610.75
2023-03-06T02:37:31.528Z,100614.22
2023-03-06T02:40:13.309Z,100605.00
2023-03-06T02:42:47.231Z,100608.94
2023-03-06T02:45:21.824Z,100602.38
2023-03-06T02:47:48.837Z,100597.06
2023-03-06T02:50:15.698Z,100605.56
2023-03-06T02:52:42.744Z,100595.44
2023-03-06T02:55:09.751Z,100601.69
2023-03-06T02:57:36.758Z,100588.53
2023-03-06T03:00:04.076Z,100585.94
2023-03-06T03:02:31.012Z,100576.91
2023-03-06T03:04:58.423Z,100583.56
2023-03-06T03:07:25.295Z,100585.63
2023-03-06T03:09:52.276Z,100587.03
2023-03-06T03:12:20.099Z,100581.81
2023-03-06T03:14:47.385Z,100585.47
2023-03-06T03:17:14.450Z,100578.72
2023-03-06T03:19:41.434Z,100587.50
2023-03-06T03:22:08.488Z,100593.81
2023-03-06T03:24:35.334Z,100594.16
2023-03-06T03:27:03.446Z,100581.25
2023-03-06T03:29:31.446Z,100589.94
2023-03-06T03:31:58.475Z,100591.84
2023-03-06T03:34:26.841Z,100598.56
2023-03-06T03:36:54.240Z,100592.13
2023-03-06T03:39:21.883Z,100586.69
2023-03-06T03:41:48.969Z,100593.84
2023-03-06T03:44:16.745Z,100588.03
2023-03-06T03:46:44.151Z,100590.53
2023-03-06T03:49:16.464Z,100583.59
2023-03-06T03:51:44.706Z,100589.41
2023-03-06T03:54:11.756Z,100589.13
2023-03-06T03:56:44.530Z,100595.97
2023-03-06T03:59:17.875Z,100591.63
2023-03-06T04:02:07.735Z,100592.31
2023-03-06T04:04:43.175Z,100600.88
2023-03-06T04:07:11.042Z,100601.56
2023-03-06T04:09:39.894Z,100594.03
2023-03-06T04:12:08.388Z,100603.47
2023-03-06T04:14:37.050Z,100601.16
2023-03-06T04:17:05.031Z,100597.31
2023-03-06T04:19:32.496Z,100590.97
2023-03-06T04:22:01.722Z,100589.44
2023-03-06T04:24:30.872Z,100591.44
2023-03-06T04:26:57.710Z,100584.09
2023-03-06T04:29:25.282Z,100584.59
2023-03-06T04:31:52.312Z,100586.28
2023-03-06T04:34:19.248Z,100574.81
2023-03-06T04:36:46.930Z,100579.75
2023-03-06T04:39:17.232Z,100571.81
2023-03-06T04:41:44.678Z,100579.34
2023-03-06T04:44:11.948Z,100570.59
2023-03-06T04:46:38.804Z,100568.78
2023-03-06T04:49:05.890Z,100573.72
2023-03-06T04:51:32.872Z,100570.78
2023-03-06T04:54:00.291Z,100581.06
2023-03-06T04:56:27.345Z,100578.53
2023-03-06T04:58:54.264Z,100571.69
2023-03-06T05:01:21.201Z,100569.88
2023-03-06T05:03:49.874Z,100560.13
2023-03-06T05:06:16.784Z,100561.78
2023-03-06T05:08:43.669Z,100564.38
2023-03-06T05:11:10.577Z,100554.75
2023-03-06T05:13:37.481Z,100553.75
2023-03-06T05:16:06.065Z,100541.88
2023-03-06T05:18:34.891Z,100552.56
2023-03-06T05:21:02.417Z,100557.16
2023-03-06T05:23:31.077Z,100557.88
2023-03-06T05:25:58.682Z,100547.78
2023-03-06T05:28:26.656Z,100549.81
2023-03-06T05:30:53.774Z,100552.84
2023-03-06T05:33:20.762Z,100555.97
2023-03-06T05:35:48.545Z,100556.84
2023-03-06T05:38:16.391Z,100554.66
2023-03-06T05:40:44.477Z,100554.34
2023-03-06T05:43:12.046Z,100554.13
2023-03-06T05:45:40.753Z,100555.34
2023-03-06T05:48:08.260Z,100552.44
2023-03-06T05:50:35.494Z,100548.72
2023-03-06T05:53:02.501Z,100548.72
2023-03-06T05:55:29.981Z,100550.94
2023-03-06T05:57:56.957Z,100544.22
2023-03-06T06:00:25.165Z,100539.50
2023-03-06T06:02:52.073Z,100535.28
2023-03-06T06:05:19.034Z,100539.47
2023-03-06T06:07:45.837Z,100538.28
2023-03-06T06:10:12.716Z,100540.56
2023-03-06T06:12:39.912Z,100543.97
2023-03-06T06:15:07.394Z,100537.16
2023-03-06T06:17:34.267Z,100538.97
2023-03-06T06:20:01.630Z,100535.84
2023-03-06T06:22:28.528Z,100530.53
2023-03-06T06:24:55.336Z,100533.53
2023-03-06T06:27:22.362Z,100533.34
2023-03-06T06:29:52.377Z,100533.03
2023-03-06T06:32:19.646Z,100536.53
2023-03-06T06:34:46.780Z,100538.44
2023-03-06T06:37:13.650Z,100531.41
2023-03-06T06:39:40.772Z,100533.34
2023-03-06T06:42:29.092Z,100542.06
2023-03-06T06:44:57.053Z,100550.09
2023-03-06T06:47:34.468Z,100537.75
2023-03-06T06:50:01.838Z,100552.03
2023-03-06T06:52:28.794Z,100547.81
2023-03-06T06:54:55.629Z,100553.94
2023-03-06T06:57:22.670Z,100556.56
2023-03-06T06:59:52.307Z,100550.44
2023-03-06T07:02:20.202Z,100550.81
2023-03-06T07:05:02.503Z,100552.16
2023-03-06T07:07:31.302Z,100553.97
2023-03-06T07:09:58.399Z,100555.19
2023-03-06T07:12:32.432Z,100551.03
2023-03-06T07:14:59.491Z,100546.00
2023-03-06T07:17:26.403Z,100556.16
2023-03-06T07:19:53.244Z,100558.66
2023-03-06T07:22:20.263Z,100553.50
2023-03-06T07:24:47.227Z,100556.28
2023-03-06T07:27:14.115Z,100555.88
2023-03-06T07:29:43.590Z,100561.69
2023-03-06T07:32:11.346Z,100554.56
2023-03-06T07:34:38.256Z,100562.88
2023-03-06T07:37:08.448Z,100557.94
2023-03-06T07:39:35.484Z,100557.00
2023-03-06T07:42:02.457Z,100559.50
2023-03-06T07:44:29.818Z,100561.97
2023-03-06T07:46:56.754Z,100559.13
2023-03-06T07:49:23.662Z,100557.38
2023-03-06T07:51:51.147Z,100560.88
2023-03-06T07:54:18.249Z,100556.91
2023-03-06T07:56:45.139Z,100550.53
2023-03-06T07:59:12.244Z,100552.50
2023-03-06T08:01:40.286Z,100555.09
2023-03-06T08:04:07.271Z,100555.13
2023-03-06T08:06:34.519Z,100552.16
2023-03-06T08:09:01.570Z,100548.66
2023-03-06T08:11:30.504Z,100547.44
2023-03-06T08:13:58.482Z,100549.06
2023-03-06T08:16:28.373Z,100544.44
2023-03-06T08:18:56.458Z,100534.97
2023-03-06T08:21:25.794Z,100523.25
2023-03-06T08:23:52.803Z,100520.38
2023-03-06T08:26:22.648Z,100520.41
2023-03-06T08:28:51.840Z,100510.66
2023-03-06T08:31:24.734Z,100516.94
2023-03-06T08:33:52.564Z,100521.59
2023-03-06T08:36:19.557Z,100522.06
2023-03-06T08:38:46.428Z,100526.41
2023-03-06T08:41:13.736Z,100523.56
2023-03-06T08:43:40.630Z,100518.25
2023-03-06T08:46:07.600Z,100521.47
2023-03-06T08:48:34.995Z,100524.84
2023-03-06T08:51:02.301Z,100538.16
2023-03-06T08:53:42.151Z,100529.16
2023-03-06T08:56:17.350Z,100524.34
2023-03-06T08:58:44.759Z,100526.44
2023-03-06T09:01:24.380Z,100534.44
2023-03-06T09:03:54.516Z,100531.53
2023-03-06T09:06:21.944Z,100536.22
2023-03-06T09:08:51.372Z,100536.69
2023-03-06T09:11:18.523Z,100540.84
2023-03-06T09:13:45.521Z,100543.09
2023-03-06T09:16:12.792Z,100544.81
2023-03-06T09:18:40.114Z,100552.50
2023-03-06T09:21:07.902Z,100552.16
2023-03-06T09:23:35.856Z,100551.66
2023-03-06T09:26:03.533Z,100554.53
2023-03-06T09:28:30.507Z,100552.56
2023-03-06T09:30:58.007Z,100548.78
2023-03-06T09:33:25.621Z,100550.47
2023-03-06T09:35:55.386Z,100562.69
2023-03-06T09:38:25.258Z,100558.06
2023-03-06T09:40:58.428Z,100558.78
2023-03-06T09:43:32.834Z,100551.53
2023-03-06T09:45:59.892Z,100556.88
2023-03-06T09:48:41.554Z,100556.81
2023-03-06T09:51:15.713Z,100561.81
2023-03-06T09:53:58.859Z,100559.22
2023-03-06T09:56:31.883Z,100560.09
2023-03-06T09:59:07.622Z,100563.69
2023-03-06T10:01:40.057Z,100551.97
2023-03-06T10:04:35.300Z,100556.03
2023-03-06T10:07:22.560Z,100550.88
2023-03-06T10:10:07.209Z,100550.72
2023-03-06T10:12:45.116Z,100543.19
2023-03-06T10:15:20.694Z,100548.34
2023-03-06T10:17:48.182Z,100542.94
2023-03-06T10:20:27.048Z,100543.13
2023-03-06T10:23:31.325Z,100549.53
2023-03-06T10:26:14.803Z,100537.59
2023-03-06T10:28:44.705Z,100547.84
2023-03-06T10:31:26.505Z,100545.31
2023-03-06T10:33:59.396Z,100550.06
2023-03-06T10:36:28.881Z,100546.06
2023-03-06T10:38:58.544Z,100540.56
2023-03-06T10:41:31.362Z,100537.75
2023-03-06T10:44:01.491Z,100534.69
2023-03-06T10:46:40.001Z,100537.19
2023-03-06T10:49:27.870Z,100540.16
2023-03-06T10:52:20.106Z,100541.56
2023-03-06T10:54:48.361Z,100536.34
2023-03-06T10:57:26.025Z,100533.50
2023-03-06T10:59:59.146Z,100522.91
2023-03-06T11:02:29.089Z,100524.81
2023-03-06T11:04:58.130Z,100524.09
2023-03-06T11:07:30.646Z,100528.41
2023-03-06T11:09:57.604Z,100518.47
2023-03-06T11:12:36.844Z,100529.81
2023-03-06T11:15:17.514Z,100525.69
2023-03-06T11:18:08.883Z,100538.16
2023-03-06T11:20:52.117Z,100523.97
2023-03-06T11:23:35.232Z,100524.06
2023-03-06T11:26:18.181Z,100527.97
2023-03-06T11:29:18.888Z,100520.59
2023-03-06T11:31:56.413Z,100524.22
2023-03-06T11:34:40.703Z,100533.00
2023-03-06T11:37:25.562Z,100523.06
2023-03-06T11:40:12.176Z,100515.72
2023-03-06T11:43:04.856Z,100505.16
2023-03-06T11:46:19.195Z,100509.53
2023-03-06T11:49:17.316Z,100503.03
2023-03-06T11:51:51.732Z,100495.06
2023-03-06T11:54:18.752Z,100492.03
2023-03-06T11:56:55.888Z,100491.16
2023-03-06T11:59:40.432Z,100490.75
2023-03-06T12:02:39.420Z,100480.66
2023-03-06T12:05:06.888Z,100478.53
2023-03-06T12:07:52.210Z,100474.16
2023-03-06T12:10:27.749Z,100477.19
2023-03-06T12:13:04.036Z,100476.84
2023-03-06T12:15:52.376Z,100464.41
2023-03-06T12:18:43.721Z,100448.28
2023-03-06T12:21:32.580Z,100448.03
2023-03-06T12:24:02.494Z,100442.06
2023-03-06T12:26:53.942Z,100436.47
2023-03-06T12:29:28.481Z,100443.56
2023-03-06T12:32:19.204Z,100440.94
2023-03-06T12:35:17.450Z,100447.56
2023-03-06T12:37:59.583Z,100433.47
2023-03-06T12:40:44.762Z,100424.78
2023-03-06T12:43:44.919Z,100419.50
2023-03-06T12:46:20.476Z,100424.44
2023-03-06T12:49:05.527Z,100422.63
2023-03-06T12:51:33.668Z,100415.38
2023-03-06T12:54:03.786Z,100416.25
2023-03-06T12:56:32.381Z,100408.28
2023-03-06T12:59:03.326Z,100398.53
2023-03-06T13:01:50.232Z,100395.00
2023-03-06T13:04:55.400Z,100402.28
2023-03-06T13:07:28.037Z,100384.53
2023-03-06T13:10:13.642Z,100383.63
2023-03-06T13:13:05.037Z,100380.19
2023-03-06T13:15:34.884Z,100376.31
2023-03-06T13:18:23.299Z,100380.94
2023-03-06T13:20:54.903Z,100369.22
2023-03-06T13:23:52.049Z,100374.06
2023-03-06T13:26:25.525Z,100370.06
2023-03-06T13:28:54.843Z,100359.59
2023-03-06T13:31:33.664Z,100369.50
2023-03-06T13:34:06.662Z,100362.66
2023-03-06T13:36:39.066Z,100357.09
2023-03-06T13:39:10.684Z,100349.44
2023-03-06T13:42:00.757Z,100342.53
2023-03-06T13:44:28.772Z,100342.75
2023-03-06T13:47:00.080Z,100332.59
2023-03-06T13:49:27.568Z,100329.69
2023-03-06T13:51:54.481Z,100332.69
2023-03-06T13:54:41.191Z,100327.94
2023-03-06T13:57:19.127Z,100322.63
2023-03-06T14:00:10.309Z,100332.88
2023-03-06T14:03:02.228Z,100328.22
2023-03-06T14:05:47.817Z,100316.75
2023-03-06T14:08:28.668Z,100309.78
2023-03-06T14:11:21.875Z,100309.00
2023-03-06T14:13:51.715Z,100300.31
2023-03-06T14:16:22.350Z,100295.75
2023-03-06T14:18:57.870Z,100294.16
2023-03-06T14:21:31.069Z,100285.06
2023-03-06T14:24:03.280Z,100277.97
2023-03-06T14:26:41.648Z,100267.56
2023-03-06T14:29:20.828Z,100270.03
2023-03-06T14:31:51.302Z,100268.66
2023-03-06T14:34:30.742Z,100263.47
2023-03-06T14:37:03.401Z,100259.25
2023-03-06T14:39:45.493Z,100246.06
2023-03-06T14:42:24.837Z,100245.28
2023-03-06T14:45:08.648Z,100241.97
2023-03-06T14:47:38.002Z,100242.56
2023-03-06T14:50:23.311Z,100240.63
2023-03-06T14:53:03.245Z,100243.56
2023-03-06T14:55:35.789Z,100243.56
2023-03-06T14:58:11.344Z,100231.47
2023-03-06T15:00:43.576Z,100229.28
2023-03-06T15:03:20.705Z,100223.50
2023-03-06T15:05:50.445Z,100217.00
2023-03-06T15:08:24.265Z,100215.16
2023-03-06T15:11:00.874Z,100211.50
2023-03-06T15:13:29.928Z,100202.50
2023-03-06T15:16:04.743Z,100203.88
2023-03-06T15:18:35.682Z,100194.31
2023-03-06T15:21:36.455Z,100181.78
2023-03-06T15:24:37.030Z,100182.25
2023-03-06T15:27:07.032Z,100181.78
2023-03-06T15:29:39.363Z,100176.19
2023-03-06T15:32:14.540Z,100192.03
2023-03-06T15:34:41.542Z,100179.34
2023-03-06T15:37:27.819Z,100174.97
2023-03-06T15:40:09.492Z,100179.28
2023-03-06T15:42:36.754Z,100182.72
2023-03-06T15:45:16.107Z,100182.97
2023-03-06T15:47:44.872Z,100179.13
2023-03-06T15:50:20.824Z,100183.97
2023-03-06T15:52:49.084Z,100174.38
2023-03-06T15:55:19.250Z,100177.03
2023-03-06T15:57:55.568Z,100163.66
2023-03-06T16:00:34.796Z,100166.28
2023-03-06T16:03:03.708Z,100150.81
2023-03-06T16:05:30.843Z,100142.78
2023-03-06T16:07:58.030Z,100141.03
2023-03-06T16:10:30.292Z,100132.19
2023-03-06T16:13:06.298Z,100135.84
2023-03-06T16:15:38.961Z,100136.47
2023-03-06T16:18:06.429Z,100126.81
2023-03-06T16:20:36.627Z,100117.84
2023-03-06T16:23:08.018Z,100119.59
2023-03-06T16:25:35.028Z,100112.81
2023-03-06T16:28:03.410Z,100113.91
2023-03-06T16:30:33.264Z,100105.06
2023-03-06T16:33:00.270Z,100108.16
2023-03-06T16:35:27.863Z,100106.09
2023-03-06T16:37:54.911Z,100107.22
2023-03-06T16:40:29.090Z,100101.16
2023-03-06T16:42:56.477Z,100090.56
2023-03-06T16:45:24.642Z,100091.38
2023-03-06T16:47:51.916Z,100095.56
2023-03-06T16:50:26.873Z,100089.16
2023-03-06T16:52:55.233Z,100075.09
2023-03-06T16:55:23.233Z,100077.34
2023-03-06T16:57:50.245Z,100073.22
2023-03-06T17:00:18.670Z,100064.13
2023-03-06T17:02:49.324Z,100057.84
2023-03-06T17:05:17.410Z,100053.41
2023-03-06T17:07:44.462Z,100050.06
2023-03-06T17:10:13.998Z,100053.59
2023-03-06T17:12:41.384Z,100046.44
2023-03-06T17:15:09.130Z,100036.66
2023-03-06T17:17:36.087Z,100042.97
2023-03-06T17:20:04.573Z,100035.44
2023-03-06T17:22:36.026Z,100026.69
2023-03-06T17:25:07.199Z,100033.25
2023-03-06T17:27:35.313Z,100028.13
2023-03-06T17:30:03.480Z,100020.75
2023-03-06T17:32:30.759Z,100019.63
2023-03-06T17:34:57.611Z,100020.44
2023-03-06T17:37:24.532Z,100010.66
2023-03-06T17:39:51.669Z,99994.81
2023-03-06T17:42:18.506Z,99995.63
2023-03-06T17:44:46.131Z,99988.72
2023-03-06T17:47:13.128Z,99984.06
2023-03-06T17:49:40.309Z,99981.84
2023-03-06T17:52:07.555Z,99977.50
2023-03-06T17:54:34.741Z,99971.25
2023-03-06T17:57:03.658Z,99975.75
2023-03-06T17:59:31.294Z,99960.09
2023-03-06T18:01:59.551Z,99955.66
2023-03-06T18:04:27.179Z,99946.38
2023-03-06T18:06:54.246Z,99941.22
2023-03-06T18:09:21.350Z,99947.78
2023-03-06T18:11:48.676Z,99949.41
2023-03-06T18:14:15.991Z,99941.22
2023-03-06T18:16:43.225Z,99942.69
2023-03-06T18:19:11.547Z,99940.94
2023-03-06T18:21:39.513Z,99937.44
2023-03-06T18:24:07.536Z,99928.00
2023-03-06T18:26:34.824Z,99925.63
2023-03-06T18:29:04.758Z,99925.28
2023-03-06T18:31:35.071Z,99914.72
2023-03-06T18:34:06.936Z,99912.53
2023-03-06T18:36:34.664Z,99904.56
2023-03-06T18:39:04.001Z,99901.25
2023-03-06T18:41:31.778Z,99886.34
2023-03-06T18:44:01.036Z,99884.91
2023-03-06T18:46:36.985Z,99886.84
2023-03-06T18:49:04.763Z,99878.31
2023-03-06T18:51:32.406Z,99886.19
2023-03-06T18:54:00.889Z,99885.03
2023-03-06T18:56:28.610Z,99886.78
2023-03-06T18:58:56.089Z,99882.28
2023-03-06T19:01:24.117Z,99865.13
2023-03-06T19:03:51.173Z,99865.28
2023-03-06T19:06:18.736Z,99860.44
2023-03-06T19:08:46.429Z,99853.97
2023-03-06T19:11:15.661Z,99854.09
2023-03-06T19:13:43.093Z,99850.66
2023-03-06T19:16:17.591Z,99839.44
2023-03-06T19:18:44.687Z,99838.66
2023-03-06T19:21:17.569Z,99820.25
2023-03-06T19:23:44.970Z,99828.34
2023-03-06T19:26:12.113Z,99818.03
2023-03-06T19:28:41.310Z,99812.06
2023-03-06T19:31:19.486Z,99804.59
2023-03-06T19:33:48.680Z,99804.84
2023-03-06T19:36:17.609Z,99797.81
2023-03-06T19:38:45.239Z,99796.34
2023-03-06T19:41:13.958Z,99798.41
2023-03-06T19:43:42.530Z,99789.88
2023-03-06T19:46:13.776Z,99782.97
2023-03-06T19:48:41.840Z,99782.63
2023-03-06T19:51:09.481Z,99779.22
2023-03-06T19:53:36.513Z,99771.50
2023-03-06T19:56:09.242Z,99768.09
2023-03-06T19:58:36.302Z,99765.38
2023-03-06T20:01:11.159Z,99756.06
2023-03-06T20:03:38.864Z,99754.81
2023-03-06T20:06:09.101Z,99749.38
2023-03-06T20:08:36.905Z,99732.69
2023-03-06T20:11:04.712Z,99737.44
2023-03-06T20:13:32.224Z,99722.38
2023-03-06T20:16:03.068Z,99728.41
2023-03-06T20:18:30.036Z,99718.84
2023-03-06T20:20:58.935Z,99706.81
2023-03-06T20:23:27.050Z,99706.25
2023-03-06T20:25:54.056Z,99706.03
2023-03-06T20:28:21.721Z,99704.53
2023-03-06T20:30:49.423Z,99691.81
2023-03-06T20:33:16.911Z,99698.84
2023-03-06T20:35:45.750Z,99705.66
2023-03-06T20:38:14.522Z,99713.97
2023-03-06T20:40:42.461Z,99709.66
2023-03-06T20:43:09.562Z,99695.34
2023-03-06T20:45:36.795Z,99701.34
2023-03-06T20:48:04.067Z,99701.00
2023-03-06T20:50:31.271Z,99696.38
2023-03-06T20:52:58.935Z,99688.63
2023-03-06T20:55:25.782Z,99691.81
2023-03-06T20:57:54.450Z,99685.34
2023-03-06T21:00:22.214Z,99679.47
2023-03-06T21:02:49.103Z,99679.91
2023-03-06T21:05:16.053Z,99668.22
2023-03-06T21:07:43.091Z,99679.22
2023-03-06T21:10:11.142Z,99680.81
2023-03-06T21:12:38.516Z,99669.44
2023-03-06T21:15:06.207Z,99669.56
2023-03-06T21:17:33.176Z,99662.19
2023-03-06T21:20:00.108Z,99651.28
2023-03-06T21:22:27.356Z,99658.00
2023-03-06T21:24:54.340Z,99645.16
2023-03-06T21:27:21.284Z,99641.19
2023-03-06T21:29:48.203Z,99638.59
2023-03-06T21:32:15.782Z,99636.31
2023-03-06T21:34:43.082Z,99627.31
2023-03-06T21:37:10.078Z,99626.19
2023-03-06T21:39:38.633Z,99618.03
2023-03-06T21:42:06.088Z,99616.78
2023-03-06T21:44:34.997Z,99617.91
2023-03-06T21:47:02.197Z,99611.34
2023-03-06T21:49:30.123Z,99600.88
2023-03-06T21:51:57.593Z,99602.47
2023-03-06T21:54:24.841Z,99604.50
2023-03-06T21:56:51.745Z,99594.38
2023-03-06T21:59:18.685Z,99597.78
2023-03-06T22:01:47.536Z,99591.56
2023-03-06T22:04:14.637Z,99590.41
2023-03-06T22:06:41.993Z,99589.41
2023-03-06T22:09:09.966Z,99582.78
2023-03-06T22:11:37.411Z,99582.78
2023-03-06T22:14:05.346Z,99580.06
2023-03-06T22:16:32.728Z,99578.13
2023-03-06T22:18:59.878Z,99571.88
2023-03-06T22:21:26.934Z,99566.78
2023-03-06T22:23:57.890Z,99562.03
2023-03-06T22:26:26.264Z,99554.88
2023-03-06T22:28:53.328Z,99553.31
2023-03-06T22:31:26.424Z,99545.03
2023-03-06T22:33:55.226Z,99539.03
2023-03-06T22:36:23.462Z,99542.88
2023-03-06T22:38:55.069Z,99547.53
2023-03-06T22:41:23.389Z,99544.81
2023-03-06T22:43:51.014Z,99539.13
2023-03-06T22:46:18.106Z,99542.75
2023-03-06T22:48:45.473Z,99540.13
2023-03-06T22:51:15.191Z,99533.66
2023-03-06T22:53:42.650Z,99528.75
2023-03-06T22:56:15.174Z,99527.94
2023-03-06T22:58:42.155Z,99524.88
2023-03-06T23:01:10.557Z,99521.00
2023-03-06T23:03:40.074Z,99515.56
2023-03-06T23:06:13.440Z,99516.34
2023-03-06T23:08:41.282Z,99520.22
2023-03-06T23:11:14.481Z,99528.06
2023-03-06T23:14:00.925Z,99516.00
2023-03-06T23:16:47.451Z,99520.75
2023-03-06T23:19:33.603Z,99516.63
2023-03-06T23:22:19.574Z,99514.00
2023-03-06T23:25:06.211Z,99511.72
2023-03-06T23:27:35.443Z,99514.56
2023-03-06T23:30:03.216Z,99519.41
2023-03-06T23:32:32.846Z,99524.88
2023-03-06T23:35:00.666Z,99524.53
2023-03-06T23:37:27.581Z,99529.63
2023-03-06T23:39:55.379Z,99522.69
2023-03-06T23:42:22.697Z,99536.00
2023-03-06T23:44:49.646Z,99527.69
2023-03-06T23:47:17.517Z,99529.63
2023-03-06T23:49:44.956Z,99523.38
2023-03-06T23:52:11.957Z,99528.41
2023-03-06T23:54:39.247Z,99529.91
2023-03-06T23:57:06.940Z,99523.19
2023-03-06T23:59:33.987Z,99520.81
